Dobrota — J8UW4 — position and weather

sailwx.info

Track history (hours):
 
Tides and Currents Weather Stations Pressure Air Temp Water Temp Dewpoint Dewpoint Depression Visibility Wind Speed Wind Dir Waves Ship Positions

Dobrota

Last reported at 2014-Dec-14 05:06 UTC. Time now 2014-Dec-18 04:07 UTC.
Position N 46°30' E 030°44'.

; draft 5.7 m.

Type: Cargo ship. MMSI: 376409000.

Date/timePositionNaut miles runAvg speedWind from/ knotsBaromVisibWave heightAir tempDewpointWater temp
2014-Dec-14 05:06N 46°30' E 030°44'0 0.0
2014-Dec-14 04:21N 46°30' E 030°44'0 0.0
2014-Dec-14 03:30N 46°30' E 030°44'0 0.0
2014-Dec-13 10:24N 46°30' E 030°44'0 0.0
2014-Dec-13 09:18N 46°30' E 030°44'  
2014-Dec-09 22:03N 41°36' E 029°20'611.7
2014-Dec-09 21:33N 41°30' E 029°18'1212.0
2014-Dec-09 20:33N 41°19' E 029°13'  
2014-Dec-05 19:25N 37°55' E 024°37'1212.3
2014-Dec-05 18:27N 37°44' E 024°31'1112.7
2014-Dec-05 17:33N 37°34' E 024°25'1312.5
2014-Dec-05 16:32N 37°23' E 024°16'4012.4
2014-Dec-05 13:16N 36°50' E 023°48'1312.6
2014-Dec-05 12:16N 36°39' E 023°38'912.2
2014-Dec-05 11:33N 36°32' E 023°32'  
Track history (hours):
 
Tides and Currents Weather Stations Pressure Air Temp Water Temp Dewpoint Dewpoint Depression Visibility Wind Speed Wind Dir Waves Ship Positions

Dobrota

Last reported at 2014-Dec-14 05:06 UTC. Time now 2014-Dec-18 04:07 UTC.
Position N 46°30' E 030°44'.

; draft 5.7 m.

Type: Cargo ship. MMSI: 376409000.

Date/timePositionNaut miles runAvg speedWind from/ knotsBaromVisibWave heightAir tempDewpointWater temp
2014-Dec-14 05:06N 46°30' E 030°44'0 0.0
2014-Dec-14 04:21N 46°30' E 030°44'0 0.0
2014-Dec-14 03:30N 46°30' E 030°44'0 0.0
2014-Dec-13 10:24N 46°30' E 030°44'0 0.0
2014-Dec-13 09:18N 46°30' E 030°44'  
2014-Dec-09 22:03N 41°36' E 029°20'611.7
2014-Dec-09 21:33N 41°30' E 029°18'1212.0
2014-Dec-09 20:33N 41°19' E 029°13'  
2014-Dec-05 19:25N 37°55' E 024°37'1212.3
2014-Dec-05 18:27N 37°44' E 024°31'1112.7
2014-Dec-05 17:33N 37°34' E 024°25'1312.5
2014-Dec-05 16:32N 37°23' E 024°16'4012.4
2014-Dec-05 13:16N 36°50' E 023°48'1312.6
2014-Dec-05 12:16N 36°39' E 023°38'912.2
2014-Dec-05 11:33N 36°32' E 023°32'  

Dump ship's entire track history